Language selection

Weather shortcuts

West Coast Vancouver Island South: Past 24 Hour Conditions

 

South Brooks - 46132

09:00 PM PDT 25 May 2024Buoy position: 49.46N 127.53W
Disclaimer

This table is a summary of hourly weather conditions for the past 24 hours.
Please note that these observations might not always be representative of weather conditions over their associated marine area.

Date / Time
(PDT)
Wind(knots) Wave height(m) Wave period(s) Pressure(kPa) Air tempC) Water tempC)
25 May 2024
21:00 SSE 11 gusts 13 1.41 8.3 101.4 11 10
20:00 SSE 10 gusts 12 1.40 8.7 101.5 11 10
19:00 S 9 gusts 13 1.45 8.7 101.5 11 10
18:00 S 9 gusts 10 1.48 8.0 101.5 11 10
17:00 N/A N/A N/A N/A N/A N/A
16:00 WSW 6 gusts 8 1.59 8.7 101.5 11 10
15:00 W 6 gusts 7 1.49 8.0 101.5 11 10
14:00 WNW 4 gusts 6 1.68 8.3 101.5 11 10
13:00 WNW 9 gusts 11 1.70 8.7 101.4 11 10
12:00 WNW 10 gusts 12 1.70 8.3 101.4 11 10
11:00 WNW 14 gusts 17 2.03 8.0 101.4 10 10
10:00 WNW 15 gusts 18 2.11 8.3 101.4 10 10
9:00 WNW 16 gusts 19 2.11 8.7 101.3 10 10
8:00 NW 16 gusts 19 2.03 8.3 101.3 10 9
7:00 WNW 19 gusts 23 2.10 9.1 101.3 10 9
6:00 NW 16 gusts 18 2.33 8.7 101.2 10 9
5:00 NW 17 gusts 20 2.26 8.3 101.2 10 9
4:00 NW 18 gusts 22 2.17 8.7 101.2 10 9
3:00 NW 19 gusts 22 2.09 9.5 101.2 10 9
2:00 NW 19 gusts 23 2.26 9.1 101.2 10 10
1:00 NW 21 gusts 24 2.23 8.7 101.2 10 10
0:00 NW 20 gusts 24 2.22 9.1 101.3 10 10
24 May 2024
23:00 NW 20 gusts 25 2.20 9.1 101.3 10 10
22:00 NW 22 gusts 27 2.37 8.3 101.3 11 10
21:00 NW 23 gusts 27 2.37 8.3 101.3 11 10

Zoom-in to make a selection

Map of Pacific - South Coast marine weather areas South Nomad - 46036 Sentry Shoal - 46131 South Brooks - 46132 Halibut Bank - 46146 South Moresby - 46147 South Hecate Strait - 46185 West Sea Otter - 46204 La Perouse Bank - 46206 East Dellwood - 46207 Georgia Strait - 46303 English Bay – 46304 Discovery Island Esquimalt Harbour Kelp Reefs Malahat Race Rocks Lightstation Saturna Island Sheringham Point University of Victoria Victoria Gonzales Victoria Int'l Airport Ballenas Islands Campbell River Airport Comox Airport Entrance Island Fanny Island Nanaimo Airport Port Hardy Airport Sisters Islets Estevan Point Port Alberni Sartine Island Solander Island Tofino Airport Grief Point Howe Sound - Pam Rocks Powell River Airport Sechelt Squamish Airport Cape St.James Bella Bella Airport Bella Coola Airport Cathedral Point Herbert Island Point Atkinson Sand Heads Lightstation Tsawwassen Ferry Terminal Vancouver Int'l Airport Vancouver Harbour West Vancouver
Legend:
buoy Buoy
land station Land Station

Pacific - South Coast Area

Another Region

Features

New Predicting and Alerting Coastal Flooding Program

Find out about coastal flooding coverage, forecasts and warnings in your region

Date modified: